Terminal Aerodrome Forecast
Issued by NWS

Home | Current Version | Previous Version | Text Only | Print | Product List | Glossary On
Versions: 1 2 3 4 5 6 7 8 9 10 11 12 13 14 15 16 17 18 19 20 21 22 23 24 25 26 27 28 29 30 31 32 33 34
000
FTUS45 KPSR 012300
TAFSDL
TAF
KSDL 012321Z 0200/0224 18008KT P6SM VCSH SCT040 BKN060 BKN100
     FM020400 VRB05KT P6SM VCSH SCT040 BKN050 OVC060
     FM021200 16009KT 6SM -RA SCT010 BKN020 OVC025
     FM021700 21014G20KT 5SM RA BR SCT007 BKN015 OVC020
     FM022200 18008KT P6SM VCSH SCT020 BKN040=

USA.gov is the U.S. government's official web portal to all federal, state and local government web resources and services.